createdAt,value
2019-04-27T00:01:05.273Z,1.53
2019-04-27T00:03:41.367Z,1.20
2019-04-27T00:06:13.626Z,1.23
2019-04-27T00:08:48.692Z,1.30
2019-04-27T00:11:24.221Z,1.27
2019-04-27T00:13:53.758Z,1.40
2019-04-27T00:16:50.510Z,1.20
2019-04-27T00:19:35.391Z,1.50
2019-04-27T00:22:08.540Z,1.53
2019-04-27T00:24:38.289Z,1.33
2019-04-27T00:27:07.789Z,1.30
2019-04-27T00:29:37.547Z,1.30
2019-04-27T00:32:07.542Z,1.57
2019-04-27T00:34:37.412Z,1.47
2019-04-27T00:37:14.180Z,1.53
2019-04-27T00:39:49.356Z,1.07
2019-04-27T00:42:19.209Z,1.30
2019-04-27T00:44:48.567Z,0.87
2019-04-27T00:47:17.787Z,1.60
2019-04-27T00:49:47.450Z,1.00
2019-04-27T00:52:17.253Z,1.10
2019-04-27T00:54:47.089Z,1.07
2019-04-27T00:57:34.796Z,1.40
2019-04-27T01:00:23.559Z,1.47
2019-04-27T01:02:56.545Z,1.40
2019-04-27T01:05:27.195Z,1.37
2019-04-27T01:07:56.583Z,1.83
2019-04-27T01:10:26.428Z,1.10
2019-04-27T01:12:56.253Z,1.60
2019-04-27T01:15:26.373Z,0.80
2019-04-27T01:18:11.035Z,1.23
2019-04-27T01:20:28.406Z,1.00
2019-04-27T01:22:59.427Z,0.90
2019-04-27T01:25:39.191Z,1.07
2019-04-27T01:28:21.595Z,1.10
2019-04-27T01:31:01.929Z,1.03
2019-04-27T01:33:31.400Z,1.03
2019-04-27T01:36:00.634Z,1.07
2019-04-27T01:38:30.786Z,1.13
2019-04-27T01:41:00.785Z,0.90
2019-04-27T01:43:30.638Z,1.00
2019-04-27T01:46:01.119Z,1.43
2019-04-27T01:48:31.060Z,1.10
2019-04-27T01:51:00.941Z,0.83
2019-04-27T01:53:31.065Z,1.00
2019-04-27T01:56:00.940Z,1.10
2019-04-27T01:58:30.272Z,1.17
2019-04-27T02:01:24.620Z,1.00
2019-04-27T02:04:12.377Z,1.00
2019-04-27T02:06:42.733Z,1.00
2019-04-27T02:09:12.348Z,0.97
2019-04-27T02:11:41.587Z,0.90
2019-04-27T02:14:11.937Z,0.80
2019-04-27T02:16:41.917Z,1.20
2019-04-27T02:19:11.793Z,1.30
2019-04-27T02:21:41.848Z,1.07
2019-04-27T02:24:11.843Z,1.37
2019-04-27T02:26:41.776Z,0.93
2019-04-27T02:29:23.316Z,1.60
2019-04-27T02:32:10.709Z,1.30
2019-04-27T02:34:50.296Z,1.37
2019-04-27T02:37:19.992Z,1.27
2019-04-27T02:39:50.168Z,0.93
2019-04-27T02:42:21.444Z,0.93
2019-04-27T02:44:50.897Z,1.10
2019-04-27T02:47:20.960Z,1.00
2019-04-27T02:49:51.064Z,0.90
2019-04-27T02:52:40.942Z,0.80
2019-04-27T02:55:10.352Z,1.10
2019-04-27T02:57:39.997Z,0.70
2019-04-27T03:00:10.438Z,0.87
2019-04-27T03:02:47.973Z,0.70
2019-04-27T03:05:25.652Z,1.07
2019-04-27T03:07:55.599Z,1.00
2019-04-27T03:10:29.637Z,0.90
2019-04-27T03:13:21.181Z,1.00
2019-04-27T03:16:00.450Z,1.00
2019-04-27T03:18:34.673Z,1.10
2019-04-27T03:21:13.089Z,1.10
2019-04-27T03:23:42.913Z,0.80
2019-04-27T03:26:43.457Z,1.20
2019-04-27T03:29:13.067Z,0.80
2019-04-27T03:31:47.108Z,0.70
2019-04-27T03:34:16.453Z,0.80
2019-04-27T03:36:45.553Z,0.90
2019-04-27T03:39:14.969Z,1.03
2019-04-27T03:41:45.045Z,1.00
2019-04-27T03:44:14.396Z,0.70
2019-04-27T03:46:43.689Z,0.80
2019-04-27T03:49:27.766Z,0.90
2019-04-27T03:52:02.697Z,0.70
2019-04-27T03:54:36.200Z,0.90
2019-04-27T03:57:11.211Z,0.70
2019-04-27T04:00:01.027Z,0.80
2019-04-27T04:02:31.007Z,1.30
2019-04-27T04:05:00.974Z,1.30
2019-04-27T04:07:30.847Z,0.90
2019-04-27T04:10:00.655Z,1.00
2019-04-27T04:12:40.449Z,1.27
2019-04-27T04:15:13.041Z,0.80
2019-04-27T04:17:42.509Z,1.10
2019-04-27T04:20:11.818Z,1.00
2019-04-27T04:22:41.505Z,1.10
2019-04-27T04:25:11.386Z,1.60
2019-04-27T04:27:42.711Z,0.97
2019-04-27T04:30:12.747Z,0.93
2019-04-27T04:32:42.326Z,1.27
2019-04-27T04:35:21.414Z,1.00
2019-04-27T04:37:52.792Z,1.10
2019-04-27T04:40:30.708Z,1.13
2019-04-27T04:43:06.123Z,1.37
2019-04-27T04:46:12.778Z,1.00
2019-04-27T04:48:40.890Z,1.00
2019-04-27T04:51:10.640Z,1.40
2019-04-27T04:53:40.764Z,1.30
2019-04-27T04:56:10.938Z,1.30
2019-04-27T04:58:41.396Z,1.53
2019-04-27T05:01:10.991Z,1.70
2019-04-27T05:03:40.681Z,2.50
2019-04-27T05:06:10.557Z,1.90
2019-04-27T05:08:40.362Z,1.60
2019-04-27T05:11:10.186Z,1.50
2019-04-27T05:13:39.986Z,1.73
2019-04-27T05:16:09.332Z,1.17
2019-04-27T05:18:39.432Z,1.30
2019-04-27T05:21:19.104Z,1.23
2019-04-27T05:23:48.944Z,1.33
2019-04-27T05:26:18.994Z,1.40
2019-04-27T05:28:50.464Z,1.40
2019-04-27T05:31:26.320Z,1.40
2019-04-27T05:33:55.669Z,1.50
2019-04-27T05:36:25.364Z,1.50
2019-04-27T05:38:55.247Z,1.30
2019-04-27T05:41:25.065Z,1.47
2019-04-27T05:44:32.780Z,1.43
2019-04-27T05:47:13.632Z,1.60
2019-04-27T05:49:45.708Z,1.63
2019-04-27T05:52:31.195Z,1.20
2019-04-27T05:55:01.076Z,1.17
2019-04-27T05:57:31.365Z,1.30
2019-04-27T06:00:02.502Z,1.33
2019-04-27T06:02:32.204Z,1.43
2019-04-27T06:05:01.895Z,1.33
2019-04-27T06:07:31.941Z,1.10
2019-04-27T06:10:01.824Z,1.20
2019-04-27T06:12:31.693Z,1.17
2019-04-27T06:15:01.498Z,1.20
2019-04-27T06:17:30.865Z,1.03
2019-04-27T06:20:00.701Z,1.10
2019-04-27T06:22:30.040Z,1.40
2019-04-27T06:25:00.401Z,1.40
2019-04-27T06:27:30.967Z,1.40
2019-04-27T06:30:01.088Z,1.20
2019-04-27T06:32:30.895Z,1.63
2019-04-27T06:35:00.789Z,1.27
2019-04-27T06:37:30.835Z,1.60
2019-04-27T06:40:00.737Z,1.50
2019-04-27T06:42:30.541Z,1.43
2019-04-27T06:45:00.588Z,1.43
2019-04-27T06:47:30.692Z,1.30
2019-04-27T06:50:00.589Z,1.27
2019-04-27T06:52:29.925Z,1.43
2019-04-27T06:55:00.600Z,1.23
2019-04-27T06:57:31.000Z,1.40
2019-04-27T07:00:00.820Z,1.17
2019-04-27T07:02:30.725Z,1.30
2019-04-27T07:05:00.546Z,1.43
2019-04-27T07:07:30.403Z,1.40
2019-04-27T07:10:00.317Z,1.43
2019-04-27T07:12:29.657Z,1.20
2019-04-27T07:14:59.409Z,1.70
2019-04-27T07:17:29.419Z,1.50
2019-04-27T07:19:59.634Z,1.60
2019-04-27T07:22:29.831Z,1.60
2019-04-27T07:24:59.881Z,1.60
2019-04-27T07:27:29.766Z,1.63
2019-04-27T07:30:01.506Z,1.33
2019-04-27T07:32:30.548Z,1.90
2019-04-27T07:35:00.353Z,1.50
2019-04-27T07:37:30.231Z,1.90
2019-04-27T07:40:00.060Z,1.97
2019-04-27T07:42:32.211Z,2.50
2019-04-27T07:45:09.334Z,2.43
2019-04-27T07:47:42.848Z,1.90
2019-04-27T07:50:12.812Z,2.60
2019-04-27T07:52:42.687Z,2.10
2019-04-27T07:55:12.133Z,2.10
2019-04-27T07:57:41.829Z,2.47
2019-04-27T08:00:12.065Z,2.20
2019-04-27T08:02:41.569Z,2.63
2019-04-27T08:05:11.469Z,2.70
2019-04-27T08:07:41.453Z,2.87
2019-04-27T08:10:11.411Z,2.70
2019-04-27T08:12:41.308Z,2.63
2019-04-27T08:15:10.740Z,3.27
2019-04-27T08:17:40.584Z,2.63
2019-04-27T08:20:11.487Z,2.90
2019-04-27T08:22:41.680Z,2.97
2019-04-27T08:25:11.096Z,2.90
2019-04-27T08:27:47.229Z,2.63
2019-04-27T08:30:24.980Z,2.83
2019-04-27T08:32:55.074Z,2.50
2019-04-27T08:35:24.480Z,2.23
2019-04-27T08:37:54.193Z,2.47
2019-04-27T08:40:24.133Z,2.97
2019-04-27T08:42:55.647Z,2.50
2019-04-27T08:45:24.994Z,2.43
2019-04-27T08:47:54.701Z,2.77
2019-04-27T08:50:24.586Z,2.00
2019-04-27T08:52:54.466Z,1.77
2019-04-27T08:55:24.452Z,2.13
2019-04-27T08:57:53.876Z,1.77
2019-04-27T09:00:23.181Z,2.10
2019-04-27T09:02:52.879Z,2.37
2019-04-27T09:05:25.930Z,2.10
2019-04-27T09:08:24.312Z,2.60
2019-04-27T09:11:03.600Z,1.97
2019-04-27T09:13:46.563Z,2.23
2019-04-27T09:16:28.832Z,2.00
2019-04-27T09:19:03.104Z,2.40
2019-04-27T09:21:51.998Z,2.13
2019-04-27T09:24:21.813Z,2.03
2019-04-27T09:26:51.653Z,2.13
2019-04-27T09:29:22.136Z,1.87
2019-04-27T09:31:52.227Z,1.93
2019-04-27T09:34:22.032Z,1.50
2019-04-27T09:36:51.935Z,1.30
2019-04-27T09:39:21.849Z,1.43
2019-04-27T09:41:51.753Z,0.90
2019-04-27T09:44:21.586Z,1.03
2019-04-27T09:46:51.440Z,0.80
2019-04-27T09:49:20.784Z,0.80
2019-04-27T09:51:50.661Z,1.00
2019-04-27T09:54:23.582Z,0.50
2019-04-27T09:56:52.917Z,0.70
2019-04-27T09:59:22.721Z,0.73
2019-04-27T10:01:52.609Z,0.90
2019-04-27T10:04:22.529Z,0.80
2019-04-27T10:06:52.373Z,0.53
2019-04-27T10:09:22.282Z,0.60
2019-04-27T10:11:52.092Z,0.57
2019-04-27T10:14:22.557Z,0.60
2019-04-27T10:16:51.797Z,0.80
2019-04-27T10:19:28.705Z,0.33
2019-04-27T10:21:52.493Z,0.63
2019-04-27T10:24:21.840Z,0.80
2019-04-27T10:26:51.521Z,0.47
2019-04-27T10:29:21.333Z,0.53
2019-04-27T10:31:51.184Z,1.10
2019-04-27T10:34:21.065Z,0.57
2019-04-27T10:36:50.883Z,0.50
2019-04-27T10:39:21.029Z,0.70
2019-04-27T10:41:50.252Z,1.20
2019-04-27T10:44:19.472Z,1.10
2019-04-27T10:46:49.169Z,1.00
2019-04-27T10:49:18.519Z,1.10
2019-04-27T10:51:48.374Z,1.00
2019-04-27T10:54:18.164Z,1.30
2019-04-27T10:56:48.017Z,1.10
2019-04-27T10:59:17.949Z,1.10
2019-04-27T11:01:48.026Z,1.00
2019-04-27T11:04:36.045Z,0.93
2019-04-27T11:07:08.813Z,1.43
2019-04-27T11:09:39.160Z,1.23
2019-04-27T11:12:08.461Z,1.00
2019-04-27T11:14:38.213Z,1.73
2019-04-27T11:17:09.745Z,1.00
2019-04-27T11:19:40.200Z,1.17
2019-04-27T11:22:09.502Z,1.10
2019-04-27T11:24:38.858Z,1.60
2019-04-27T11:27:08.135Z,1.70
2019-04-27T11:29:37.369Z,1.97
2019-04-27T11:32:07.230Z,1.73
2019-04-27T11:34:55.840Z,1.77
2019-04-27T11:37:30.217Z,1.47
2019-04-27T11:40:00.559Z,1.33
2019-04-27T11:42:29.928Z,1.13
2019-04-27T11:44:59.691Z,1.50
2019-04-27T11:47:29.545Z,1.60
2019-04-27T11:49:59.595Z,2.00
2019-04-27T11:52:29.425Z,1.20
2019-04-27T11:54:58.772Z,1.37
2019-04-27T11:57:28.492Z,1.40
2019-04-27T11:59:58.304Z,2.83
2019-04-27T12:02:46.434Z,2.20
2019-04-27T12:05:16.746Z,1.93
2019-04-27T12:07:49.549Z,1.43
2019-04-27T12:10:19.412Z,1.47
2019-04-27T12:12:48.716Z,1.70
2019-04-27T12:15:19.095Z,1.17
2019-04-27T12:17:48.916Z,1.83
2019-04-27T12:20:18.922Z,1.33
2019-04-27T12:22:48.272Z,2.07
2019-04-27T12:25:18.784Z,1.57
2019-04-27T12:28:03.778Z,0.80
2019-04-27T12:30:52.233Z,1.17
2019-04-27T12:33:21.603Z,1.23
2019-04-27T12:35:51.088Z,1.00
2019-04-27T12:38:20.589Z,0.63
2019-04-27T12:40:49.856Z,0.60
2019-04-27T12:43:19.688Z,1.20
2019-04-27T12:45:49.673Z,0.40
2019-04-27T12:48:19.031Z,0.87
2019-04-27T12:50:48.761Z,0.67
2019-04-27T12:53:26.033Z,0.73
2019-04-27T12:56:07.164Z,0.60
2019-04-27T12:59:11.206Z,0.67
2019-04-27T13:01:41.535Z,0.57
2019-04-27T13:04:10.853Z,1.10
2019-04-27T13:06:40.616Z,1.00
2019-04-27T13:09:10.580Z,0.70
2019-04-27T13:11:40.595Z,0.87
2019-04-27T13:14:10.520Z,0.50
2019-04-27T13:16:40.336Z,0.80
2019-04-27T13:19:09.713Z,0.50
2019-04-27T13:21:38.956Z,0.57
2019-04-27T13:24:08.729Z,0.47
2019-04-27T13:26:39.017Z,0.80
2019-04-27T13:29:08.901Z,0.80
2019-04-27T13:31:38.340Z,0.70
2019-04-27T13:34:08.233Z,0.60
2019-04-27T13:36:38.080Z,0.70
2019-04-27T13:39:07.698Z,0.90
2019-04-27T13:41:37.383Z,0.70
2019-04-27T13:44:07.605Z,1.00
2019-04-27T13:46:55.958Z,0.90
2019-04-27T13:49:50.661Z,1.20
2019-04-27T13:52:22.618Z,1.07
2019-04-27T13:54:51.912Z,0.97
2019-04-27T13:58:23.400Z,1.50
2019-04-27T14:00:52.773Z,0.80
2019-04-27T14:03:22.057Z,1.10
2019-04-27T14:05:52.598Z,1.23
2019-04-27T14:08:22.536Z,1.03
2019-04-27T14:10:52.292Z,0.60
2019-04-27T14:13:22.122Z,1.57
2019-04-27T14:15:52.089Z,1.03
2019-04-27T14:18:21.906Z,1.03
2019-04-27T14:20:51.286Z,1.00
2019-04-27T14:23:22.180Z,1.10
2019-04-27T14:25:52.010Z,1.27
2019-04-27T14:28:21.396Z,1.13
2019-04-27T14:30:50.674Z,1.50
2019-04-27T14:33:20.421Z,0.70
2019-04-27T14:35:49.941Z,0.93
2019-04-27T14:38:19.313Z,0.83
2019-04-27T14:40:50.324Z,1.30
2019-04-27T14:43:20.597Z,0.73
2019-04-27T14:45:50.595Z,1.13
2019-04-27T14:48:19.980Z,0.60
2019-04-27T14:50:49.333Z,0.80
2019-04-27T14:53:19.100Z,0.87
2019-04-27T14:55:49.008Z,0.50
2019-04-27T14:58:19.467Z,0.60
2019-04-27T15:00:49.991Z,0.80
2019-04-27T15:03:20.073Z,0.77
2019-04-27T15:05:53.920Z,0.70
2019-04-27T15:08:21.730Z,0.60
2019-04-27T15:10:51.737Z,0.60
2019-04-27T15:13:21.557Z,0.50
2019-04-27T15:15:51.470Z,0.37
2019-04-27T15:18:22.929Z,0.37
2019-04-27T15:20:52.428Z,0.57
2019-04-27T15:23:22.368Z,0.70
2019-04-27T15:25:52.283Z,0.57
2019-04-27T15:28:26.288Z,0.53
2019-04-27T15:31:23.528Z,0.50
2019-04-27T15:34:03.636Z,0.50
2019-04-27T15:36:47.097Z,0.50
2019-04-27T15:39:26.988Z,1.67
2019-04-27T15:42:01.993Z,1.40
2019-04-27T15:44:30.093Z,1.97
2019-04-27T15:46:59.616Z,1.50
2019-04-27T15:49:28.865Z,1.83
2019-04-27T15:52:00.129Z,1.20
2019-04-27T15:54:32.356Z,1.10
2019-04-27T15:57:01.317Z,1.80
2019-04-27T15:59:37.283Z,1.47
2019-04-27T16:02:05.384Z,2.20
2019-04-27T16:04:34.574Z,1.50
2019-04-27T16:07:03.672Z,1.80
2019-04-27T16:09:33.428Z,1.00
2019-04-27T16:12:12.043Z,1.67
2019-04-27T16:14:36.410Z,0.80
2019-04-27T16:17:09.868Z,0.97
2019-04-27T16:19:36.453Z,1.30
2019-04-27T16:22:07.676Z,0.63
2019-04-27T16:24:39.121Z,1.03
2019-04-27T16:27:08.882Z,1.00
2019-04-27T16:29:39.009Z,1.20
2019-04-27T16:32:11.373Z,1.40
2019-04-27T16:34:41.325Z,2.73
2019-04-27T16:37:14.063Z,2.00
2019-04-27T16:39:45.655Z,1.93
2019-04-27T16:42:15.862Z,2.07
2019-04-27T16:44:52.927Z,1.40
2019-04-27T16:47:24.331Z,0.93
2019-04-27T16:49:51.853Z,1.00
2019-04-27T16:52:21.284Z,1.00
2019-04-27T16:54:56.966Z,1.37
2019-04-27T16:57:24.758Z,1.00
2019-04-27T16:59:57.763Z,1.67
2019-04-27T17:02:25.547Z,1.67
2019-04-27T17:04:55.813Z,1.30
2019-04-27T17:07:30.143Z,1.10
2019-04-27T17:09:59.438Z,1.73
2019-04-27T17:12:36.049Z,1.40
2019-04-27T17:15:34.090Z,1.10
2019-04-27T17:18:24.260Z,1.50
2019-04-27T17:20:57.447Z,1.50
2019-04-27T17:23:30.991Z,1.40
2019-04-27T17:26:06.009Z,1.10
2019-04-27T17:28:39.129Z,1.77
2019-04-27T17:31:12.997Z,1.03
2019-04-27T17:33:48.722Z,1.27
2019-04-27T17:36:17.374Z,1.50
2019-04-27T17:38:50.944Z,1.63
2019-04-27T17:41:18.761Z,1.40
2019-04-27T17:43:48.537Z,1.60
2019-04-27T17:46:19.961Z,1.33
2019-04-27T17:48:49.547Z,1.77
2019-04-27T17:51:18.863Z,1.63
2019-04-27T17:53:49.993Z,1.70
2019-04-27T17:56:19.724Z,1.37
2019-04-27T17:58:48.970Z,2.27
2019-04-27T18:01:19.055Z,1.60
2019-04-27T18:03:58.401Z,1.17
2019-04-27T18:06:24.238Z,1.37
2019-04-27T18:08:54.876Z,1.27
2019-04-27T18:11:22.285Z,1.73
2019-04-27T18:13:51.522Z,1.17
2019-04-27T18:16:23.729Z,2.00
2019-04-27T18:19:07.671Z,1.70
2019-04-27T18:21:33.013Z,1.23
2019-04-27T18:24:08.666Z,1.10
2019-04-27T18:27:03.260Z,1.30
2019-04-27T18:29:30.808Z,1.73
2019-04-27T18:31:59.557Z,1.50
2019-04-27T18:34:28.944Z,1.27
2019-04-27T18:36:58.224Z,1.53
2019-04-27T18:39:28.018Z,1.20
2019-04-27T18:41:58.512Z,1.60
2019-04-27T18:44:31.773Z,1.90
2019-04-27T18:47:02.288Z,2.27
2019-04-27T18:49:38.636Z,1.87
2019-04-27T18:52:26.509Z,1.50
2019-04-27T18:54:56.464Z,1.33
2019-04-27T18:57:27.952Z,0.83
2019-04-27T18:59:58.266Z,1.73
2019-04-27T19:02:28.833Z,1.40
2019-04-27T19:04:58.276Z,3.67
2019-04-27T19:07:28.985Z,3.57
2019-04-27T19:09:59.224Z,1.40
2019-04-27T19:12:29.186Z,2.43
2019-04-27T19:14:59.054Z,1.40
2019-04-27T19:17:29.013Z,1.83
2019-04-27T19:19:58.873Z,3.13
2019-04-27T19:22:30.005Z,3.40
2019-04-27T19:24:59.496Z,4.50
2019-04-27T19:27:43.317Z,5.13
2019-04-27T19:30:35.839Z,2.27
2019-04-27T19:33:05.774Z,2.53
2019-04-27T19:35:35.760Z,3.07
2019-04-27T19:38:05.652Z,1.57
2019-04-27T19:40:35.565Z,2.40
2019-04-27T19:43:05.412Z,1.97
2019-04-27T19:45:35.486Z,1.50
2019-04-27T19:48:05.376Z,1.50
2019-04-27T19:50:35.308Z,2.47
2019-04-27T19:53:05.124Z,3.50
2019-04-27T19:55:34.585Z,3.40
2019-04-27T19:58:04.432Z,3.97
2019-04-27T20:00:53.585Z,3.07
2019-04-27T20:03:30.125Z,2.80
2019-04-27T20:06:00.135Z,2.57
2019-04-27T20:08:32.042Z,2.40
2019-04-27T20:11:01.946Z,2.60
2019-04-27T20:13:31.772Z,2.30
2019-04-27T20:16:01.112Z,3.40
2019-04-27T20:18:31.753Z,2.63
2019-04-27T20:21:01.391Z,2.90
2019-04-27T20:23:31.217Z,2.30
2019-04-27T20:26:01.019Z,2.03
2019-04-27T20:28:31.427Z,2.50
2019-04-27T20:31:02.808Z,1.80
2019-04-27T20:33:32.869Z,1.80
2019-04-27T20:36:02.679Z,1.90
2019-04-27T20:38:32.796Z,1.57
2019-04-27T20:41:02.145Z,1.27
2019-04-27T20:43:33.022Z,2.07
2019-04-27T20:46:02.815Z,2.00
2019-04-27T20:48:32.200Z,2.00
2019-04-27T20:51:01.505Z,1.63
2019-04-27T20:53:36.486Z,1.83
2019-04-27T20:56:05.956Z,1.40
2019-04-27T20:58:35.686Z,2.73
2019-04-27T21:01:05.564Z,1.20
2019-04-27T21:03:41.156Z,2.43
2019-04-27T21:06:42.642Z,1.87
2019-04-27T21:09:16.480Z,2.03
2019-04-27T21:11:47.307Z,1.77
2019-04-27T21:14:16.752Z,1.53
2019-04-27T21:16:46.277Z,2.03
2019-04-27T21:19:16.125Z,2.20
2019-04-27T21:21:45.948Z,2.53
2019-04-27T21:24:15.832Z,1.23
2019-04-27T21:26:45.884Z,1.73
2019-04-27T21:29:15.963Z,1.37
2019-04-27T21:31:45.765Z,1.73
2019-04-27T21:34:15.212Z,2.20
2019-04-27T21:36:44.454Z,1.87
2019-04-27T21:39:14.128Z,1.27
2019-04-27T21:41:43.484Z,1.37
2019-04-27T21:44:13.115Z,1.93
2019-04-27T21:46:42.329Z,1.63
2019-04-27T21:49:13.681Z,1.90
2019-04-27T21:52:05.223Z,1.50
2019-04-27T21:54:35.190Z,1.30
2019-04-27T21:57:04.956Z,1.50
2019-04-27T21:59:35.095Z,1.87
2019-04-27T22:02:06.510Z,1.93
2019-04-27T22:04:36.384Z,2.33
2019-04-27T22:07:05.679Z,1.37
2019-04-27T22:09:35.353Z,1.97
2019-04-27T22:12:05.652Z,1.43
2019-04-27T22:14:35.503Z,1.83
2019-04-27T22:17:05.578Z,1.47
2019-04-27T22:19:35.019Z,2.10
2019-04-27T22:22:06.057Z,1.60
2019-04-27T22:24:37.093Z,2.57
2019-04-27T22:27:06.340Z,1.60
2019-04-27T22:29:35.625Z,1.47
2019-04-27T22:32:04.936Z,1.50
2019-04-27T22:34:34.714Z,1.47
2019-04-27T22:37:04.229Z,1.40
2019-04-27T22:39:42.877Z,1.43
2019-04-27T22:42:34.462Z,1.60
2019-04-27T22:45:26.641Z,1.80
2019-04-27T22:47:55.992Z,1.60
2019-04-27T22:50:25.220Z,1.67
2019-04-27T22:52:54.522Z,1.47
2019-04-27T22:55:23.751Z,1.60
2019-04-27T22:57:58.520Z,1.20
2019-04-27T23:00:42.364Z,2.00
2019-04-27T23:03:15.077Z,1.33
2019-04-27T23:05:44.356Z,1.47
2019-04-27T23:08:13.676Z,1.60
2019-04-27T23:10:43.365Z,1.50
2019-04-27T23:13:13.233Z,1.80
2019-04-27T23:15:45.349Z,1.53
2019-04-27T23:18:14.632Z,2.60
2019-04-27T23:20:43.860Z,2.10
2019-04-27T23:23:13.096Z,1.77
2019-04-27T23:25:42.751Z,1.40
2019-04-27T23:28:12.465Z,1.73
2019-04-27T23:31:03.807Z,1.60
2019-04-27T23:33:33.113Z,2.03
2019-04-27T23:36:02.336Z,1.97
2019-04-27T23:38:32.033Z,1.67
2019-04-27T23:41:01.968Z,1.50
2019-04-27T23:43:31.378Z,1.43
2019-04-27T23:46:01.676Z,2.40
2019-04-27T23:48:32.114Z,1.40
2019-04-27T23:51:14.859Z,1.20
2019-04-27T23:53:44.658Z,1.50
2019-04-27T23:56:14.462Z,1.70
2019-04-27T23:58:44.297Z,1.97
